Etusivu
METAR-TAF:

METAR-TAF

Lentoasemat :

Gambell, Alaska, Yhdysvallat

Leveyspiiri: 63-46N, Pituuspiiri: 171-44W, korkeus merenpinnasta: 8 m

Tämänhetkinen sää

Tämä raportti tehtiin 1 tunti ja 9 minuuttia sitten, kello 07.56 UTC
Tuuli 20 kn pohjoisesta
Lämpötila -21°C
Kosteus 77%
Ilmanpaine 1000 hPa
Näkyvyys: 16.1 km
selkeää

METAR: PAGM 200756Z AUTO 01020KT 10SM CLR M21/M24 A2952 RMK AO2 PK WND 02029/0735 SLP003 T12111239 FZRANO

Aika: 00:05 (09:05 UTC)


TAF: puuttuu

Säähavainnot ja -ennusteet yli 4000 lentoasemalta (METAR- ja TAF-raportit).

Käytössä olevat sääasemat on merkitty karttaan keltaisilla ja punaisilla pisteillä.

Aseta hiiri pisteen päälle nähdäksesi sääaseman nimen.

Klikkaa sitten nähdäksesi säähavainnot ja -ennusteet.

Kartan vaihtaminen: klikkaa mustalla rastilla varustettuja vihreitä pisteitä, niin voit zoomata sisään; viivalla varustettua vihreää pistettä, niin voit zoomata ulos tai vihreitä nuolia, niin pääset viereisille kartoille.


METAR-TAF: